• Join FlightAware (Why Join?)
  • Login
  • US Flag GB Flag 
02:13 EDT


 

Airport Tracker/Info


-or-


 

Live Flight TrackerFlight Track Log ✈ DAL268 ✈ 27-May-2013 ✈ KATL - KJFK

Flight Track Log - Related Links

Times and Time Zones

All times are in EDT time to prevent confusion due to time zone crossing. See the DAL268 flight status page for this flight to view local times or setup timezone preferences in your user account.

Time Position Orientation Groundspeed Altitude Reporting Facility
EDT Latitude Longitude Course Direction KTS MPH feet Rate Location/Type
18:36 33.6333 -84.3500 64° Northeast 217 250 2,600  Level Atlanta TRACON
18:37 33.6333 -84.2667 90° East 276 318 5,000 2,520 Climbing Atlanta TRACON
18:38 33.7145 -84.0199 101° East  Level FlightAware Approximate
18:38 33.6333 -84.1667 90° East 287 330 8,000  Level Atlanta TRACON
18:39 33.6922 -83.8859 101° East  Level FlightAware Approximate
18:39 33.6333 -84.0667 90° East 304 350 10,000  Level Atlanta TRACON
18:39 33.6378 -84.0289 82° East 325 374 10,400 1,320 Climbing Atlanta Center
18:40 33.6698 -83.7519 101° East  Level FlightAware Approximate
18:40 33.6461 -83.9092 85° East 351 404 12,000  Level Atlanta Center
18:41 33.6558 -83.6192 64° Northeast  Level FlightAware Approximate
18:41 33.6561 -83.7742 85° East 383 441 13,900  Level Atlanta Center
18:42 33.6642 -83.6319 86° East 413 475 16,000 2,040 Climbing Atlanta Center
18:43 33.7200 -83.5019 63° Northeast 424 488 18,000 1,920 Climbing Atlanta Center
18:44 33.7800 -83.3739 61° Northeast 431 496 19,900 1,800 Climbing Atlanta Center
18:45 33.8458 -83.2408 59° Northeast 452 520 21,600 1,500 Climbing Atlanta Center
18:46 33.9158 -83.0925 60° Northeast 458 527 22,900 1,320 Climbing Atlanta Center
18:47 33.9836 -82.9539 59° Northeast 473 544 24,300 1,500 Climbing Atlanta Center
18:48 34.0489 -82.8128 61° Northeast 485 558 26,000 1,500 Climbing Atlanta Center
18:49 34.1183 -82.6689 60° Northeast 485 558 27,300 1,560 Climbing Atlanta Center
18:50 34.1836 -82.5347 60° Northeast 480 552 29,200 1,680 Climbing Atlanta Center
18:51 34.2467 -82.3978 61° Northeast 467 537 30,700 1,200 Climbing Atlanta Center
18:52 34.3094 -82.2633 60° Northeast 462 532 31,700 960 Climbing Atlanta Center
18:53 34.3722 -82.1311 60° Northeast 462 532 32,700 600 Climbing Atlanta Center
18:54 34.4367 -81.9961 60° Northeast 457 526 33,000 120 Climbing Atlanta Center
18:55 34.5011 -81.8586 60° Northeast 457 526 33,000  Level Atlanta Center
18:56 34.5633 -81.7233 61° Northeast 457 526 33,000  Level Atlanta Center
18:57 34.6256 -81.5903 60° Northeast 457 526 33,000  Level Atlanta Center
18:58 34.6875 -81.4594 60° Northeast 452 520 33,000  Level Atlanta Center
18:59 34.7514 -81.3236 60° Northeast 447 514 33,000  Level Atlanta Center
19:00 34.8108 -81.1875 62° Northeast 454 522 33,000  Level Atlanta Center
19:01 34.8703 -81.0489 62° Northeast 454 522 33,000  Level Atlanta Center
19:03 34.9647 -80.7775 67° East 448 516 33,000  Level Washington Center
19:04 35.0128 -80.6308 68° East 456 525 33,000  Level Washington Center
19:05 35.0628 -80.4842 67° East 466 536 33,000  Level Washington Center
19:06 35.1125 -80.3400 67° East 466 536 33,000  Level Washington Center
19:07 35.1617 -80.1981 67° East 466 536 33,000  Level Washington Center
19:08 35.2092 -80.0508 68° East 466 536 33,000  Level Washington Center
19:09 35.2650 -79.8936 66° East 466 536 33,000  Level Washington Center
19:10 35.3161 -79.7486 67° East 466 536 33,000  Level Washington Center
19:11 35.3647 -79.6011 68° East 466 536 33,000  Level Washington Center
19:12 35.4133 -79.4556 68° East 466 536 33,000  Level Washington Center
19:13 35.4642 -79.3050 67° East 466 536 33,000  Level Washington Center
19:14 35.5144 -79.1569 67° East 466 536 33,000  Level Washington Center
19:15 35.5625 -79.0136 68° East 461 531 33,000  Level Washington Center
19:16 35.6128 -78.8622 68° East 466 536 33,000  Level Washington Center
19:17 35.6606 -78.7108 69° East 466 536 33,000  Level Washington Center
19:18 35.7125 -78.5594 67° East 466 536 33,000  Level Washington Center
19:19 35.7600 -78.4050 69° East 466 536 33,000  Level Washington Center
19:20 35.8050 -78.2556 70° East 466 536 33,000 -600 Level Washington Center
19:21 35.8522 -78.1033 69° East 466 536 31,900 -1,500 Descending Washington Center
19:22 35.9014 -77.9486 69° East 471 542 30,000 -1,500 Descending Washington Center
19:23 35.9503 -77.7933 69° East 471 542 29,000 -540 Descending Washington Center
19:24 36.0153 -77.6439 62° Northeast 481 554 29,000  Level Washington Center
19:25 36.0989 -77.5122 52° Northeast 476 548 29,000  Level Washington Center
19:26 36.1697 -77.3931 54° Northeast 481 554 29,000  Level Washington Center
19:27 36.2508 -77.2583 53° Northeast 481 554 29,000  Level Washington Center
19:28 36.3569 -77.1292 44° Northeast 481 554 29,000  Level Washington Center
19:29 36.4561 -77.0356 37° Northeast 476 548 29,000  Level Washington Center
19:30 36.5617 -76.9342 38° Northeast 481 554 29,000  Level Washington Center
19:31 36.6692 -76.8322 37° Northeast 486 559 29,000  Level Washington Center
19:32 36.7872 -76.7150 38° Northeast 486 559 29,000  Level Washington Center
19:33 36.8903 -76.6125 38° Northeast 486 559 29,000  Level Washington Center
19:34 36.9994 -76.5100 37° Northeast 486 559 29,000  Level Washington Center
19:35 37.1067 -76.4044 38° Northeast 486 559 29,000  Level Washington Center
19:36 37.2139 -76.2986 38° Northeast 493 567 29,000  Level Washington Center
19:37 37.3208 -76.1925 38° Northeast 493 567 29,000  Level Washington Center
19:38 37.4192 -76.1044 35° Northeast 493 567 29,000  Level Washington Center
19:39 37.5239 -76.0003 38° Northeast 482 555 29,000  Level Washington Center
19:40 37.6325 -75.8958 37° Northeast 482 555 29,000 -60 Level Washington Center
19:41 37.7392 -75.7861 39° Northeast 487 560 28,900  Descending Washington Center
19:42 37.8478 -75.6839 37° Northeast 487 560 29,000  Climbing Washington Center
19:43 37.9542 -75.5761 39° Northeast 487 560 28,900  Descending Washington Center
19:44 38.0647 -75.4731 36° Northeast 487 560 29,000  Climbing Washington Center
19:45 38.1814 -75.3936 28° Northeast 480 552 29,000  Level Washington Center
19:46 38.2978 -75.3167 27° Northeast 469 540 29,000  Level Washington Center
19:47 38.4167 -75.2447 25° Northeast 469 540 29,000  Level Washington Center
19:48 38.5308 -75.1644 29° Northeast 469 540 29,000  Level Washington Center
19:49 38.6453 -75.0628 35° Northeast 474 545 29,000  Level Washington Center
19:50 38.7572 -74.9714 32° Northeast 480 552 29,000 -240 Level Washington Center
19:51 38.8694 -74.8769 33° Northeast 480 552 28,600 -780 Descending Washington Center
19:52 38.9772 -74.7853 33° Northeast 473 544 27,500 -1,440 Descending Washington Center
19:53 39.0850 -74.6958 33° Northeast 467 537 25,700 -2,100 Descending Washington Center
19:54 39.1925 -74.6033 34° Northeast 467 537 23,300 -2,220 Descending Washington Center
19:56 39.3681 -74.4553 33° Northeast 426 490 19,600 -1,980 Descending New York Center
19:57 39.4644 -74.3717 34° Northeast 415 478 18,000 -840 Descending New York Center
19:58 39.5736 -74.2775 34° Northeast 415 478 18,000 -720 Level New York Center
19:59 39.6642 -74.1822 39° Northeast 415 478 16,600 -2,040 Descending New York Center
20:00 39.7481 -74.0892 40° Northeast 405 466 13,900 -2,640 Descending New York Center
20:01 39.8233 -74.0061 40° Northeast 393 452 11,300 -1,500 Descending New York Center
20:02 39.9064 -73.9425 30° Northeast 367 422 11,000 -180 Descending New York Center
20:03 39.9869 -73.8864 28° Northeast 309 356 11,000 -60 Level New York Center
20:04 40.0533 -73.8217 37° Northeast 293 337 10,900 -1,380 Descending New York Center
20:05 40.1231 -73.7839 23° Northeast 274 315 8,300 -2,580 Descending New York Center
20:06 40.1667 -73.8000 344° North 271 312 7,000 -2,340 Descending New York TRACON
20:07 40.2167 -73.8667 314° West 259 298 4,800 -2,220 Descending New York TRACON
20:07 40.2367 -73.9006 308° West 245 282 3,900 -1,260 Descending New York Center
20:08 40.2936 -73.9547 324° Northwest 250 288 3,000 -480 Descending New York Center
20:09 40.3467 -73.9953 330° Northwest 250 288 3,000  Level New York Center
20:10 40.3833 -74.0000 354° North 221 254 3,000  Level New York TRACON
20:11 40.4333 -74.0000 360° North 190 219 3,000  Level New York TRACON
20:11 40.4833 -73.9833 14° North 196 226 3,000 -120 Level New York TRACON
20:13 40.5333 -73.9500 27° Northeast 195 224 2,800 -240 Descending New York TRACON